Time;durP1;ratioP1;P1;durP2;ratioP2;P2;SDS_P1;SDS_P2;PMS_P1;PMS_P2;Temp;Humidity;BMP_temperature;BMP_pressure;BME280_temperature;BME280_humidity;BME280_pressure;Samples;Min_cycle;Max_cycle;Signal;HPM_P1;HPM_P2
2021/11/10 00:01:13;;;;;;;;;41.00;34.25;;;;;;;;5055221;28;46261;-72
2021/11/10 00:03:38;;;;;;;;;39.75;34.25;;;;;;;;5055110;28;45381;-73
2021/11/10 00:06:03;;;;;;;;;38.25;34.75;;;;;;;;5055506;28;45287;-72
2021/11/10 00:08:28;;;;;;;;;40.75;34.00;;;;;;;;5054887;28;45506;-73
2021/11/10 00:10:55;;;;;;;;;46.50;34.00;;;;;;;;5054625;28;46248;-72
2021/11/10 00:13:21;;;;;;;;;43.00;35.00;;;;;;;;5055003;28;45439;-73
2021/11/10 00:15:47;;;;;;;;;41.25;35.75;;;;;;;;5055175;28;45634;-73
2021/11/10 00:18:13;;;;;;;;;38.25;34.25;;;;;;;;5054911;28;45387;-72
2021/11/10 00:20:38;;;;;;;;;41.25;32.75;;;;;;;;5055096;28;46157;-73
2021/11/10 00:23:03;;;;;;;;;37.00;32.75;;;;;;;;5055377;28;45548;-73
2021/11/10 00:25:29;;;;;;;;;41.50;35.25;;;;;;;;5055726;28;45359;-73
2021/11/10 00:27:54;;;;;;;;;39.25;35.00;;;;;;;;5054853;28;46043;-74
2021/11/10 00:30:19;;;;;;;;;35.00;33.00;;;;;;;;5054513;28;47376;-73
2021/11/10 00:32:44;;;;;;;;;41.75;35.00;;;;;;;;5054483;28;45331;-74
2021/11/10 00:35:09;;;;;;;;;38.75;35.25;;;;;;;;5054917;28;45512;-73
2021/11/10 00:37:35;;;;;;;;;43.50;34.75;;;;;;;;5055676;28;45283;-73
2021/11/10 00:40:00;;;;;;;;;36.25;32.75;;;;;;;;5054609;28;45690;-73
2021/11/10 00:42:25;;;;;;;;;36.50;33.25;;;;;;;;5054583;28;45356;-73
2021/11/10 00:44:50;;;;;;;;;38.25;33.25;;;;;;;;5055062;28;45327;-73
2021/11/10 00:47:15;;;;;;;;;38.50;34.25;;;;;;;;5054518;28;45551;-73
2021/11/10 00:49:41;;;;;;;;;37.50;35.00;;;;;;;;5055383;28;46250;-73
2021/11/10 00:52:06;;;;;;;;;38.25;33.75;;;;;;;;5054448;28;45376;-73
2021/11/10 00:54:32;;;;;;;;;39.25;35.00;;;;;;;;5054700;28;45318;-73
2021/11/10 00:56:57;;;;;;;;;41.25;35.50;;;;;;;;5054585;28;45548;-74
2021/11/10 00:59:22;;;;;;;;;37.50;33.75;;;;;;;;5054772;28;46016;-72
2021/11/10 01:01:47;;;;;;;;;38.00;33.25;;;;;;;;5054765;28;45332;-71
2021/11/10 01:04:13;;;;;;;;;42.75;35.00;;;;;;;;5054647;28;45400;-72
2021/11/10 01:06:39;;;;;;;;;39.25;33.25;;;;;;;;5054373;28;45533;-72
2021/11/10 01:09:05;;;;;;;;;32.75;30.25;;;;;;;;5054028;28;45477;-73
2021/11/10 01:11:31;;;;;;;;;38.25;34.75;;;;;;;;5054450;28;45406;-72
2021/11/10 01:13:56;;;;;;;;;36.50;33.50;;;;;;;;5054882;28;45339;-73
2021/11/10 01:16:22;;;;;;;;;40.50;34.75;;;;;;;;5054333;28;45416;-72
2021/11/10 01:18:47;;;;;;;;;45.25;39.25;;;;;;;;5054008;28;45539;-72
2021/11/10 01:21:12;;;;;;;;;48.00;39.50;;;;;;;;5055851;28;45343;-73
2021/11/10 01:23:37;;;;;;;;;54.25;42.75;;;;;;;;5057833;28;45462;-73
2021/11/10 01:26:02;;;;;;;;;48.75;39.00;;;;;;;;5058051;28;45458;-73
2021/11/10 01:28:28;;;;;;;;;50.25;42.25;;;;;;;;5058201;28;46311;-73
2021/11/10 01:30:53;;;;;;;;;45.25;40.00;;;;;;;;5057390;28;45492;-73
2021/11/10 01:33:18;;;;;;;;;54.75;44.00;;;;;;;;5057930;28;45428;-73
2021/11/10 01:35:43;;;;;;;;;51.00;43.00;;;;;;;;5057920;28;45292;-73
2021/11/10 01:38:09;;;;;;;;;53.50;45.25;;;;;;;;5057893;28;46147;-73
2021/11/10 01:40:34;;;;;;;;;48.00;39.50;;;;;;;;5058703;28;45300;-74
2021/11/10 01:43:05;;;;;;;;;51.75;42.25;;;;;;;;5057838;28;45494;-73
2021/11/10 01:45:31;;;;;;;;;54.25;43.00;;;;;;;;5057217;28;45364;-73
2021/11/10 01:47:56;;;;;;;;;52.75;44.25;;;;;;;;5057316;28;46019;-72
2021/11/10 01:50:21;;;;;;;;;53.50;42.25;;;;;;;;5057553;28;45465;-72
2021/11/10 01:52:47;;;;;;;;;46.50;39.25;;;;;;;;5058475;28;45240;-72
2021/11/10 01:55:13;;;;;;;;;44.25;37.50;;;;;;;;5057624;28;45536;-72
2021/11/10 01:57:38;;;;;;;;;45.50;39.50;;;;;;;;5039059;28;46014;-72
2021/11/10 02:00:18;;;;;;;;;49.50;39.25;;;;;;;;5057084;28;45379;-73
2021/11/10 02:02:44;;;;;;;;;45.25;37.75;;;;;;;;5057590;28;45442;-72
2021/11/10 02:05:10;;;;;;;;;51.00;42.00;;;;;;;;5057233;28;45423;-72
2021/11/10 02:07:36;;;;;;;;;46.50;35.50;;;;;;;;5057448;28;46765;-73
2021/11/10 02:10:02;;;;;;;;;41.50;36.00;;;;;;;;5057264;28;45473;-73
2021/11/10 02:12:28;;;;;;;;;44.75;38.75;;;;;;;;5057231;28;45400;-73
2021/11/10 02:14:53;;;;;;;;;40.25;35.00;;;;;;;;5057429;28;45846;-73
2021/11/10 02:17:20;;;;;;;;;40.50;37.00;;;;;;;;5057369;28;45443;-74
2021/11/10 02:19:45;;;;;;;;;43.00;37.00;;;;;;;;5057804;28;45285;-73
2021/11/10 02:22:15;;;;;;;;;38.00;34.75;;;;;;;;5057257;28;45293;-73
2021/11/10 02:24:43;;;;;;;;;39.75;34.75;;;;;;;;5057096;28;45365;-73
2021/11/10 02:27:15;;;;;;;;;46.00;38.50;;;;;;;;5056430;28;47038;-74
2021/11/10 02:29:40;;;;;;;;;47.75;38.50;;;;;;;;5057099;28;45533;-73
2021/11/10 02:32:07;;;;;;;;;42.00;38.00;;;;;;;;5056342;28;45435;-73
2021/11/10 02:34:35;;;;;;;;;41.00;35.75;;;;;;;;5055312;28;45154;-73
2021/11/10 02:37:01;;;;;;;;;40.25;35.75;;;;;;;;5056711;28;47323;-73
2021/11/10 02:39:26;;;;;;;;;43.25;37.00;;;;;;;;5056752;28;45589;-73
2021/11/10 02:41:51;;;;;;;;;37.50;36.00;;;;;;;;5038818;28;45391;-73
2021/11/10 02:44:18;;;;;;;;;44.25;37.50;;;;;;;;5056852;28;45582;-73
2021/11/10 02:46:44;;;;;;;;;42.00;35.00;;;;;;;;5057138;28;46445;-73
2021/11/10 02:49:09;;;;;;;;;43.25;36.25;;;;;;;;5056512;28;45453;-73
2021/11/10 02:51:35;;;;;;;;;37.75;33.00;;;;;;;;5056636;28;45575;-73
2021/11/10 02:54:00;;;;;;;;;44.50;37.50;;;;;;;;5038535;28;45337;-73
2021/11/10 02:56:25;;;;;;;;;34.25;32.50;;;;;;;;5056304;28;45379;-73
2021/11/10 02:58:51;;;;;;;;;37.50;34.00;;;;;;;;5057439;28;45350;-72
2021/11/10 03:01:16;;;;;;;;;38.50;32.75;;;;;;;;5056684;28;45331;-73
2021/11/10 03:03:41;;;;;;;;;35.00;31.75;;;;;;;;5056485;28;45349;-72
2021/11/10 03:06:06;;;;;;;;;48.50;36.00;;;;;;;;5056283;28;45356;-73
2021/11/10 03:08:32;;;;;;;;;51.00;40.50;;;;;;;;5056597;28;45438;-72
2021/11/10 03:10:57;;;;;;;;;43.75;35.75;;;;;;;;5056303;28;45250;-72
2021/11/10 03:13:22;;;;;;;;;45.50;35.75;;;;;;;;5056718;28;45268;-73
2021/11/10 03:15:48;;;;;;;;;38.75;34.00;;;;;;;;5056042;28;45346;-73
2021/11/10 03:18:14;;;;;;;;;38.25;33.25;;;;;;;;5056179;28;45469;-73
2021/11/10 03:20:40;;;;;;;;;40.25;36.25;;;;;;;;5056383;28;45550;-73
2021/11/10 03:23:05;;;;;;;;;39.50;33.75;;;;;;;;5056579;28;45399;-73
2021/11/10 03:25:30;;;;;;;;;38.25;34.25;;;;;;;;5056179;28;45835;-74
2021/11/10 03:27:56;;;;;;;;;42.50;36.25;;;;;;;;5055818;28;45410;-73
2021/11/10 03:30:21;;;;;;;;;42.00;35.50;;;;;;;;5056153;28;45436;-73
2021/11/10 03:32:47;;;;;;;;;39.25;31.50;;;;;;;;5056293;28;45363;-74
2021/11/10 03:35:13;;;;;;;;;42.00;37.25;;;;;;;;5055947;28;46554;-73
2021/11/10 03:37:38;;;;;;;;;42.75;32.75;;;;;;;;5056419;28;45459;-72
2021/11/10 03:40:04;;;;;;;;;46.25;37.00;;;;;;;;5055571;28;45495;-72
2021/11/10 03:42:29;;;;;;;;;49.75;40.50;;;;;;;;5055687;28;45565;-73
2021/11/10 03:44:54;;;;;;;;;41.50;36.75;;;;;;;;5055500;28;46166;-74
2021/11/10 03:47:19;;;;;;;;;43.75;37.75;;;;;;;;5055501;28;45506;-74
2021/11/10 03:49:45;;;;;;;;;47.00;37.00;;;;;;;;5056340;28;45432;-73
2021/11/10 03:52:11;;;;;;;;;45.00;37.50;;;;;;;;5055388;28;45431;-73
2021/11/10 03:54:36;;;;;;;;;43.50;38.75;;;;;;;;5054971;28;46199;-73
2021/11/10 03:57:02;;;;;;;;;44.25;39.00;;;;;;;;5055441;28;45316;-73
2021/11/10 03:59:27;;;;;;;;;50.25;40.75;;;;;;;;5055641;28;45482;-72
2021/11/10 04:01:52;;;;;;;;;49.00;40.25;;;;;;;;5056447;28;46009;-73
2021/11/10 04:04:17;;;;;;;;;52.00;43.50;;;;;;;;5055250;28;46338;-74
2021/11/10 04:06:42;;;;;;;;;48.75;41.00;;;;;;;;5055377;28;45435;-73
2021/11/10 04:09:08;;;;;;;;;56.75;44.25;;;;;;;;5054884;28;45327;-74
2021/11/10 04:11:33;;;;;;;;;59.25;46.25;;;;;;;;5055305;28;45454;-73
2021/11/10 04:13:59;;;;;;;;;56.50;45.00;;;;;;;;5055480;28;45454;-74
2021/11/10 04:16:24;;;;;;;;;62.50;48.25;;;;;;;;5055300;28;45297;-73
2021/11/10 04:18:54;;;;;;;;;62.25;49.25;;;;;;;;5054962;28;45550;-72
2021/11/10 04:21:19;;;;;;;;;63.75;51.25;;;;;;;;5054913;28;45419;-72
2021/11/10 04:23:46;;;;;;;;;59.50;48.25;;;;;;;;5054394;28;45412;-72
2021/11/10 04:26:11;;;;;;;;;60.50;50.25;;;;;;;;5054728;28;45605;-74
2021/11/10 04:28:37;;;;;;;;;48.00;40.75;;;;;;;;5055602;28;45318;-73
2021/11/10 04:31:02;;;;;;;;;58.50;47.00;;;;;;;;5054846;28;45540;-72
2021/11/10 04:33:27;;;;;;;;;43.00;35.75;;;;;;;;5054639;28;45288;-72
2021/11/10 04:35:53;;;;;;;;;45.25;38.75;;;;;;;;5054641;28;45388;-73
2021/11/10 04:38:18;;;;;;;;;50.25;40.00;;;;;;;;5054481;28;45254;-73
2021/11/10 04:40:44;;;;;;;;;50.00;41.25;;;;;;;;5055451;28;45284;-72
2021/11/10 04:43:09;;;;;;;;;56.00;40.75;;;;;;;;5053972;28;46742;-71
2021/11/10 04:45:37;;;;;;;;;50.00;39.00;;;;;;;;5054170;28;45518;-74
2021/11/10 04:48:02;;;;;;;;;48.75;40.00;;;;;;;;5054418;28;45414;-73
2021/11/10 04:50:28;;;;;;;;;46.00;40.25;;;;;;;;5054746;28;45399;-73
2021/11/10 04:52:53;;;;;;;;;46.75;40.25;;;;;;;;5054875;28;46829;-73
2021/11/10 04:55:19;;;;;;;;;53.00;40.75;;;;;;;;5035616;28;45520;-72
2021/11/10 04:57:44;;;;;;;;;49.50;39.75;;;;;;;;5054164;28;45380;-73
2021/11/10 05:00:10;;;;;;;;;54.25;42.00;;;;;;;;5053792;28;45486;-74
2021/11/10 05:02:36;;;;;;;;;54.00;44.75;;;;;;;;5053732;28;47140;-74
2021/11/10 05:05:01;;;;;;;;;56.50;44.25;;;;;;;;5053973;28;45510;-73
2021/11/10 05:07:26;;;;;;;;;56.75;45.50;;;;;;;;5054454;28;45508;-73
2021/11/10 05:09:54;;;;;;;;;55.50;44.25;;;;;;;;5054037;28;45473;-73
2021/11/10 05:12:19;;;;;;;;;55.00;46.75;;;;;;;;5053623;28;45589;-72
2021/11/10 05:14:45;;;;;;;;;59.50;46.75;;;;;;;;5053553;28;45550;-73
2021/11/10 05:17:10;;;;;;;;;54.25;44.50;;;;;;;;5053768;28;45308;-73
2021/11/10 05:19:35;;;;;;;;;58.75;45.00;;;;;;;;5054826;28;45402;-72
2021/11/10 05:22:00;;;;;;;;;58.50;47.00;;;;;;;;5053192;28;47129;-72
2021/11/10 05:24:26;;;;;;;;;56.50;44.50;;;;;;;;5053392;28;45528;-73
2021/11/10 05:26:51;;;;;;;;;59.50;45.50;;;;;;;;5053648;28;45510;-72
2021/11/10 05:29:17;;;;;;;;;60.25;46.25;;;;;;;;5053632;28;45593;-72
2021/11/10 05:31:42;;;;;;;;;57.25;46.25;;;;;;;;5054179;28;46190;-72
2021/11/10 05:34:08;;;;;;;;;46.25;38.50;;;;;;;;5053324;28;45603;-71
2021/11/10 05:36:33;;;;;;;;;58.25;48.75;;;;;;;;5053169;28;45384;-71
2021/11/10 05:38:58;;;;;;;;;53.50;43.50;;;;;;;;5054928;28;45561;-71
2021/11/10 05:41:23;;;;;;;;;55.25;43.25;;;;;;;;5053563;28;45968;-72
2021/11/10 05:43:49;;;;;;;;;49.75;42.00;;;;;;;;5053549;28;45297;-81
2021/11/10 05:46:14;;;;;;;;;43.75;36.25;;;;;;;;5053089;28;45303;-71
2021/11/10 05:48:39;;;;;;;;;51.00;43.00;;;;;;;;5052864;28;45321;-72
2021/11/10 05:51:05;;;;;;;;;51.50;40.75;;;;;;;;5051730;28;45942;-72
2021/11/10 05:53:30;;;;;;;;;52.75;44.00;;;;;;;;5034417;28;45476;-72
2021/11/10 05:55:56;;;;;;;;;60.25;48.00;;;;;;;;5052849;28;45415;-72
2021/11/10 05:58:23;;;;;;;;;59.50;43.25;;;;;;;;5052211;28;45238;-73
2021/11/10 06:00:49;;;;;;;;;55.00;46.00;;;;;;;;5052302;28;46306;-71
2021/11/10 06:03:14;;;;;;;;;64.50;47.00;;;;;;;;5052715;28;45198;-72
2021/11/10 06:05:39;;;;;;;;;54.00;44.75;;;;;;;;5052527;28;45369;-72
2021/11/10 06:08:05;;;;;;;;;56.25;43.75;;;;;;;;5055624;28;45428;-73
2021/11/10 06:10:30;;;;;;;;;63.00;48.25;;;;;;;;5055951;28;46413;-72
2021/11/10 06:12:55;;;;;;;;;58.00;46.75;;;;;;;;5055974;28;45501;-71
2021/11/10 06:15:21;;;;;;;;;65.33;54.00;;;;;;;;5055584;28;45446;-71
2021/11/10 06:17:46;;;;;;;;;50.75;43.50;;;;;;;;5056444;28;45249;-73
2021/11/10 06:20:12;;;;;;;;;58.00;45.00;;;;;;;;5055374;28;45973;-73
2021/11/10 06:22:37;;;;;;;;;60.00;47.75;;;;;;;;5056712;28;45447;-73
2021/11/10 06:25:03;;;;;;;;;62.00;48.75;;;;;;;;5055095;28;45511;-74
2021/11/10 06:27:28;;;;;;;;;58.00;47.50;;;;;;;;5055325;28;45407;-71
2021/11/10 06:29:54;;;;;;;;;63.75;50.00;;;;;;;;5055499;28;45776;-73
2021/11/10 06:32:19;;;;;;;;;58.50;48.00;;;;;;;;5055362;28;45448;-73
2021/11/10 06:34:45;;;;;;;;;54.00;44.25;;;;;;;;5057024;28;45399;-74
2021/11/10 06:37:10;;;;;;;;;57.25;45.75;;;;;;;;5055320;28;45449;-70
2021/11/10 06:39:35;;;;;;;;;57.00;47.00;;;;;;;;5054538;28;46050;-70
2021/11/10 06:42:00;;;;;;;;;54.00;44.00;;;;;;;;5054774;28;45441;-70
2021/11/10 06:44:26;;;;;;;;;60.75;49.00;;;;;;;;5054836;28;45550;-68
2021/11/10 06:46:51;;;;;;;;;57.50;47.25;;;;;;;;5055761;28;45449;-70
2021/11/10 06:49:16;;;;;;;;;60.75;50.75;;;;;;;;5054593;28;46119;-70
2021/11/10 06:51:41;;;;;;;;;61.00;49.75;;;;;;;;5036483;28;45516;-69
2021/11/10 06:54:07;;;;;;;;;61.25;48.50;;;;;;;;5054545;28;45419;-70
2021/11/10 06:56:32;;;;;;;;;57.50;45.00;;;;;;;;5053738;28;45298;-69
2021/11/10 06:58:58;;;;;;;;;59.50;49.50;;;;;;;;5054804;28;46311;-70
2021/11/10 07:01:23;;;;;;;;;60.25;47.00;;;;;;;;5055222;28;45380;-69
2021/11/10 07:03:49;;;;;;;;;62.50;48.75;;;;;;;;5054005;28;45446;-69
2021/11/10 07:06:14;;;;;;;;;63.50;50.75;;;;;;;;5054873;28;45414;-69
2021/11/10 07:08:40;;;;;;;;;58.33;49.00;;;;;;;;5055041;28;45462;-70
2021/11/10 07:11:05;;;;;;;;;62.75;50.25;;;;;;;;5056076;28;45346;-71
2021/11/10 07:13:30;;;;;;;;;60.33;50.33;;;;;;;;5054230;28;45249;-70
2021/11/10 07:15:55;;;;;;;;;58.75;45.75;;;;;;;;5053257;28;45542;-69
2021/11/10 07:18:21;;;;;;;;;67.33;50.67;;;;;;;;5051739;28;46094;-69
2021/11/10 07:20:46;;;;;;;;;63.25;51.25;;;;;;;;5053332;28;45346;-68
2021/11/10 07:23:12;;;;;;;;;58.00;45.67;;;;;;;;5053891;28;45372;-69
2021/11/10 07:25:37;;;;;;;;;64.75;50.75;;;;;;;;5054249;28;45392;-69
2021/11/10 07:28:02;;;;;;;;;58.00;48.50;;;;;;;;5053516;28;46310;-69
2021/11/10 07:30:27;;;;;;;;;63.00;51.00;;;;;;;;5052705;28;45417;-69
2021/11/10 07:32:53;;;;;;;;;69.00;54.00;;;;;;;;5053302;28;45360;-68
2021/11/10 07:35:18;;;;;;;;;60.75;49.00;;;;;;;;5053314;28;45369;-69
2021/11/10 07:37:45;;;;;;;;;61.25;49.25;;;;;;;;5054329;28;46084;-69
2021/11/10 07:40:12;;;;;;;;;65.75;50.00;;;;;;;;5053432;28;45441;-69
2021/11/10 07:42:37;;;;;;;;;63.25;50.25;;;;;;;;5053115;28;45485;-69
2021/11/10 07:45:08;;;;;;;;;67.33;52.00;;;;;;;;5053000;28;45457;-70
2021/11/10 07:47:40;;;;;;;;;64.75;50.75;;;;;;;;5052068;28;46966;-69
2021/11/10 07:50:06;;;;;;;;;64.50;51.00;;;;;;;;5052910;28;45614;-69
2021/11/10 07:52:32;;;;;;;;;56.25;45.75;;;;;;;;5052239;28;45332;-70
2021/11/10 07:54:57;;;;;;;;;58.00;46.00;;;;;;;;5052812;28;45577;-69
2021/11/10 07:57:22;;;;;;;;;63.25;48.00;;;;;;;;5052895;28;46441;-69
2021/11/10 07:59:47;;;;;;;;;63.75;49.50;;;;;;;;5052996;28;45613;-69
2021/11/10 08:02:12;;;;;;;;;36.50;24.00;;;;;;;;5052426;28;45456;-69
2021/11/10 08:04:38;;;;;;;;;57.50;47.00;;;;;;;;5052731;28;45418;-69
2021/11/10 08:07:03;;;;;;;;;68.00;49.00;;;;;;;;5052471;28;45451;-69
2021/11/10 08:09:28;;;;;;;;;57.75;47.75;;;;;;;;5051874;28;45542;-69
2021/11/10 08:11:53;;;;;;;;;65.00;48.25;;;;;;;;5053361;28;45368;-69
2021/11/10 08:14:19;;;;;;;;;63.75;49.50;;;;;;;;5051660;28;45574;-70
2021/11/10 08:16:44;;;;;;;;;60.25;46.00;;;;;;;;5052627;28;46233;-68
2021/11/10 08:19:10;;;;;;;;;64.75;49.75;;;;;;;;5052291;28;45294;-69
2021/11/10 08:21:35;;;;;;;;;60.75;49.25;;;;;;;;5052753;28;45473;-69
2021/11/10 08:24:02;;;;;;;;;59.50;46.25;;;;;;;;5052392;28;45245;-69
2021/11/10 08:26:27;;;;;;;;;59.75;48.25;;;;;;;;5052784;28;46259;-70
2021/11/10 08:28:53;;;;;;;;;61.50;47.50;;;;;;;;5054060;28;45273;-69
2021/11/10 08:31:18;;;;;;;;;57.25;46.00;;;;;;;;5051896;28;45485;-70
2021/11/10 08:33:43;;;;;;;;;60.00;47.00;;;;;;;;5053094;28;45259;-70
2021/11/10 08:36:08;;;;;;;;;63.25;51.25;;;;;;;;5052501;28;46115;-69
2021/11/10 08:38:34;;;;;;;;;62.75;46.75;;;;;;;;5052406;28;45268;-69
2021/11/10 08:40:59;;;;;;;;;59.50;49.50;;;;;;;;5052623;28;45248;-70
2021/11/10 08:43:25;;;;;;;;;76.33;65.00;;;;;;;;5053551;28;45206;-70
2021/11/10 08:45:54;;;;;;;;;61.50;49.50;;;;;;;;5052297;28;47137;-70
2021/11/10 08:48:19;;;;;;;;;62.00;49.25;;;;;;;;5037278;28;45360;-70
2021/11/10 08:50:45;;;;;;;;;61.75;48.50;;;;;;;;5037122;28;45414;-70
2021/11/10 08:53:11;;;;;;;;;56.75;45.50;;;;;;;;5053187;28;45363;-70
2021/11/10 08:55:37;;;;;;;;;61.00;48.50;;;;;;;;5053307;28;45432;-70
2021/11/10 08:58:02;;;;;;;;;60.50;48.75;;;;;;;;5052487;28;45401;-70
2021/11/10 09:00:29;;;;;;;;;60.00;49.00;;;;;;;;5052223;28;45371;-70
2021/11/10 09:02:55;;;;;;;;;56.25;47.25;;;;;;;;5052714;28;45355;-69
2021/11/10 09:05:20;;;;;;;;;59.25;45.50;;;;;;;;5052308;28;46342;-69
2021/11/10 09:07:46;;;;;;;;;59.50;46.75;;;;;;;;5053376;28;45381;-70
2021/11/10 09:10:12;;;;;;;;;58.50;48.50;;;;;;;;5052722;28;45322;-69
2021/11/10 09:12:41;;;;;;;;;60.00;49.00;;;;;;;;5052924;28;45527;-70
2021/11/10 09:15:08;;;;;;;;;63.75;49.75;;;;;;;;5051325;28;47600;-70
2021/11/10 09:17:36;;;;;;;;;57.50;47.25;;;;;;;;5051661;28;45308;-69
2021/11/10 09:20:03;;;;;;;;;62.75;50.25;;;;;;;;5052764;28;45358;-70
2021/11/10 09:22:28;;;;;;;;;56.00;45.75;;;;;;;;5052801;28;45456;-69
2021/11/10 09:24:53;;;;;;;;;60.00;48.00;;;;;;;;5051677;28;46352;-69
2021/11/10 09:27:18;;;;;;;;;67.00;51.00;;;;;;;;5052219;28;45459;-70
2021/11/10 09:29:44;;;;;;;;;61.50;47.00;;;;;;;;5051856;28;45466;-69
2021/11/10 09:32:09;;;;;;;;;62.00;47.00;;;;;;;;5053152;28;45486;-68
2021/11/10 09:34:35;;;;;;;;;63.00;49.00;;;;;;;;5053018;28;46988;-69
2021/11/10 09:37:00;;;;;;;;;64.00;51.25;;;;;;;;5052121;28;45392;-69
2021/11/10 09:39:25;;;;;;;;;62.25;48.75;;;;;;;;5052128;28;45483;-69
2021/11/10 09:41:51;;;;;;;;;65.50;50.25;;;;;;;;5052832;28;45348;-69
2021/11/10 09:44:17;;;;;;;;;56.00;46.50;;;;;;;;5055488;28;45500;-70
2021/11/10 09:46:42;;;;;;;;;60.75;48.50;;;;;;;;5056177;28;45259;-70
2021/11/10 09:49:10;;;;;;;;;62.50;49.00;;;;;;;;5055264;28;45455;-69
2021/11/10 09:51:35;;;;;;;;;59.00;46.50;;;;;;;;5054694;28;45424;-70
2021/11/10 09:54:01;;;;;;;;;58.00;47.00;;;;;;;;5054693;28;46567;-70
2021/11/10 09:56:26;;;;;;;;;58.00;46.00;;;;;;;;5055760;28;45621;-70
2021/11/10 09:58:52;;;;;;;;;59.50;47.00;;;;;;;;5057216;28;45422;-70
2021/11/10 10:01:18;;;;;;;;;60.75;46.25;;;;;;;;5055257;28;45482;-69
2021/11/10 10:03:46;;;;;;;;;58.00;46.50;;;;;;;;5054890;28;45332;-70
2021/11/10 10:06:13;;;;;;;;;55.50;45.75;;;;;;;;5055103;28;45568;-70
2021/11/10 10:08:39;;;;;;;;;57.00;44.00;;;;;;;;5055329;28;45374;-69
2021/11/10 10:11:04;;;;;;;;;53.25;45.00;;;;;;;;5054906;28;45278;-70
2021/11/10 10:13:30;;;;;;;;;56.75;46.00;;;;;;;;5055253;28;46873;-69
2021/11/10 10:15:55;;;;;;;;;42.00;36.50;;;;;;;;5055445;28;45352;-71
2021/11/10 10:18:24;;;;;;;;;63.25;48.50;;;;;;;;5055756;28;45268;-70
2021/11/10 10:20:57;;;;;;;;;60.00;47.00;;;;;;;;5055581;28;45425;-70
2021/11/10 10:23:25;;;;;;;;;59.50;47.00;;;;;;;;5055089;28;45436;-70
2021/11/10 10:25:50;;;;;;;;;55.00;45.00;;;;;;;;5055505;28;45312;-70
2021/11/10 10:28:18;;;;;;;;;57.75;45.25;;;;;;;;5054977;28;45403;-70
2021/11/10 10:30:48;;;;;;;;;56.25;43.75;;;;;;;;5054991;28;45485;-70
2021/11/10 10:33:21;;;;;;;;;55.00;45.50;;;;;;;;5053958;28;45491;-71
2021/11/10 10:35:51;;;;;;;;;54.25;44.75;;;;;;;;5054089;28;45308;-70
2021/11/10 10:38:18;;;;;;;;;50.50;41.75;;;;;;;;5054383;28;45469;-70
2021/11/10 10:40:45;;;;;;;;;43.75;37.75;;;;;;;;5054741;28;45362;-69
2021/11/10 10:43:11;;;;;;;;;56.25;43.25;;;;;;;;5054171;28;47154;-69
2021/11/10 10:45:36;;;;;;;;;50.00;41.50;;;;;;;;5053975;28;45581;-70
2021/11/10 10:48:04;;;;;;;;;51.75;42.75;;;;;;;;5054525;28;45743;-74
2021/11/10 10:50:34;;;;;;;;;56.50;44.00;;;;;;;;5054854;28;45292;-74
2021/11/10 10:53:00;;;;;;;;;52.25;42.75;;;;;;;;5054807;28;45538;-75
2021/11/10 10:55:34;;;;;;;;;55.50;45.75;;;;;;;;5054887;28;45317;-74
2021/11/10 10:58:00;;;;;;;;;55.50;47.50;;;;;;;;5054603;28;45528;-75
2021/11/10 11:00:29;;;;;;;;;59.25;49.25;;;;;;;;5054849;28;45383;-75
2021/11/10 11:02:54;;;;;;;;;54.00;44.50;;;;;;;;5054839;28;46151;-74
2021/11/10 11:05:39;;;;;;;;;57.75;46.00;;;;;;;;5055439;28;45376;-73
2021/11/10 11:08:23;;;;;;;;;54.25;43.50;;;;;;;;5053517;28;45389;-75
2021/11/10 11:10:49;;;;;;;;;44.25;37.25;;;;;;;;5055894;28;45578;-72
2021/11/10 11:13:19;;;;;;;;;49.50;40.75;;;;;;;;5055002;28;47024;-72
2021/11/10 11:16:04;;;;;;;;;50.75;41.00;;;;;;;;5056394;28;45250;-73
2021/11/10 11:18:30;;;;;;;;;46.25;37.50;;;;;;;;5054917;28;45349;-73
2021/11/10 11:20:55;;;;;;;;;46.75;38.75;;;;;;;;5054356;28;45344;-74
2021/11/10 11:23:20;;;;;;;;;52.75;42.75;;;;;;;;5054111;28;46269;-72
2021/11/10 11:25:45;;;;;;;;;50.25;40.75;;;;;;;;5055444;28;45328;-73
2021/11/10 11:28:13;;;;;;;;;47.75;40.50;;;;;;;;5054482;28;45345;-73
2021/11/10 11:30:55;;;;;;;;;50.00;40.50;;;;;;;;5054191;28;45638;-73
2021/11/10 11:33:21;;;;;;;;;49.25;41.00;;;;;;;;5053803;28;45948;-74
2021/11/10 11:35:53;;;;;;;;;58.00;46.00;;;;;;;;5053362;28;45307;-73
2021/11/10 11:38:20;;;;;;;;;47.75;39.00;;;;;;;;5053785;28;45284;-74
2021/11/10 11:40:46;;;;;;;;;41.50;36.00;;;;;;;;5054258;28;45296;-75
2021/11/10 11:43:14;;;;;;;;;52.50;42.50;;;;;;;;5052570;28;45756;-74
2021/11/10 11:45:45;;;;;;;;;43.00;35.75;;;;;;;;5052659;28;45454;-74
2021/11/10 11:48:10;;;;;;;;;37.00;32.50;;;;;;;;5053098;28;45489;-73
2021/11/10 11:50:36;;;;;;;;;32.50;27.75;;;;;;;;5053726;28;45541;-74
2021/11/10 11:53:02;;;;;;;;;30.75;28.25;;;;;;;;5053145;28;46298;-74
2021/11/10 11:55:28;;;;;;;;;38.25;32.00;;;;;;;;5053526;28;45344;-73
2021/11/10 11:58:07;;;;;;;;;38.75;33.75;;;;;;;;5053652;28;45514;-73
2021/11/10 12:00:37;;;;;;;;;49.25;39.75;;;;;;;;5053843;28;45198;-74
2021/11/10 12:03:14;;;;;;;;;48.75;40.75;;;;;;;;5053860;28;45538;-73
2021/11/10 12:05:39;;;;;;;;;47.00;39.50;;;;;;;;5053224;28;45557;-74
2021/11/10 12:08:04;;;;;;;;;43.75;37.00;;;;;;;;5053697;28;45467;-73
2021/11/10 12:10:33;;;;;;;;;43.00;37.00;;;;;;;;5054809;28;45406;-74
2021/11/10 12:13:04;;;;;;;;;42.00;33.50;;;;;;;;5052882;28;47213;-74
2021/11/10 12:15:49;;;;;;;;;46.25;36.50;;;;;;;;5053314;28;45553;-74
2021/11/10 12:18:19;;;;;;;;;47.75;36.00;;;;;;;;5053063;28;45465;-73
2021/11/10 12:20:47;;;;;;;;;49.25;38.50;;;;;;;;5053582;28;45446;-74
2021/11/10 12:23:12;;;;;;;;;40.00;34.25;;;;;;;;5052711;28;47339;-75
2021/11/10 12:25:57;;;;;;;;;29.50;28.50;;;;;;;;5053915;28;45419;-73
2021/11/10 12:28:46;;;;;;;;;34.50;30.75;;;;;;;;5054063;28;45605;-73
2021/11/10 12:31:40;;;;;;;;;27.75;24.25;;;;;;;;5042951;28;45575;-74
2021/11/10 12:34:14;;;;;;;;;30.25;28.75;;;;;;;;5037451;28;45447;-74
2021/11/10 12:36:58;;;;;;;;;35.50;32.00;;;;;;;;5052827;28;45376;-73
2021/11/10 12:39:28;;;;;;;;;32.25;30.25;;;;;;;;5053300;28;45506;-73
2021/11/10 12:41:56;;;;;;;;;38.75;32.75;;;;;;;;5053498;28;45350;-74
2021/11/10 12:44:40;;;;;;;;;27.75;26.75;;;;;;;;5034507;28;47086;-74
2021/11/10 12:47:05;;;;;;;;;28.75;27.50;;;;;;;;5050900;28;45440;-74
2021/11/10 12:49:30;;;;;;;;;25.25;25.25;;;;;;;;5053875;28;45379;-74
2021/11/10 12:52:10;;;;;;;;;31.50;29.75;;;;;;;;5052812;28;45574;-74
2021/11/10 12:54:39;;;;;;;;;33.50;27.75;;;;;;;;5052605;28;45464;-73
2021/11/10 12:57:05;;;;;;;;;23.50;22.00;;;;;;;;5052777;28;45171;-73
2021/11/10 12:59:34;;;;;;;;;30.75;25.25;;;;;;;;5053275;28;45231;-74
2021/11/10 13:02:09;;;;;;;;;34.25;30.25;;;;;;;;5053761;28;45506;-74
2021/11/10 13:04:35;;;;;;;;;33.25;30.50;;;;;;;;5053343;28;47284;-74
2021/11/10 13:07:08;;;;;;;;;36.00;32.00;;;;;;;;5052532;28;45538;-73
2021/11/10 13:11:59;;;;;;;;;30.25;27.00;;;;;;;;5052853;28;45367;-74
2021/11/10 13:14:27;;;;;;;;;36.50;30.25;;;;;;;;5036348;28;46989;-74
2021/11/10 13:16:56;;;;;;;;;25.75;25.75;;;;;;;;5048488;28;45436;-73
2021/11/10 13:19:41;;;;;;;;;29.25;26.75;;;;;;;;5052725;28;45318;-74
2021/11/10 13:22:08;;;;;;;;;32.50;28.50;;;;;;;;5052749;28;45648;-74
2021/11/10 13:24:33;;;;;;;;;32.00;30.00;;;;;;;;5052691;28;47178;-72
2021/11/10 13:26:58;;;;;;;;;32.00;30.00;;;;;;;;5052654;28;45456;-73
2021/11/10 13:29:23;;;;;;;;;32.50;29.75;;;;;;;;5052894;28;45395;-74
2021/11/10 13:31:50;;;;;;;;;28.50;28.50;;;;;;;;5053657;28;45376;-72
2021/11/10 13:34:15;;;;;;;;;23.25;20.00;;;;;;;;5051773;28;45522;-73
2021/11/10 13:36:40;;;;;;;;;30.00;26.75;;;;;;;;5034019;28;45819;-73
2021/11/10 13:39:10;;;;;;;;;28.75;24.00;;;;;;;;5052390;28;47808;-74
2021/11/10 13:41:38;;;;;;;;;27.25;27.25;;;;;;;;5053141;28;45325;-73
2021/11/10 13:44:23;;;;;;;;;38.25;32.75;;;;;;;;5053312;28;45567;-72
2021/11/10 13:46:53;;;;;;;;;29.00;27.75;;;;;;;;5052792;28;45420;-73
2021/11/10 13:49:19;;;;;;;;;25.25;25.25;;;;;;;;5052305;28;45466;-72
2021/11/10 13:51:50;;;;;;;;;34.00;26.00;;;;;;;;5052687;28;45292;-74
2021/11/10 13:54:16;;;;;;;;;26.75;24.25;;;;;;;;5052438;28;46250;-74
2021/11/10 13:56:52;;;;;;;;;34.75;30.75;;;;;;;;5052582;28;47461;-74
2021/11/10 13:59:32;;;;;;;;;28.00;24.75;;;;;;;;5053137;28;45613;-74
2021/11/10 14:02:03;;;;;;;;;24.00;22.75;;;;;;;;5049422;28;45537;-72
2021/11/10 14:04:29;;;;;;;;;35.00;30.25;;;;;;;;5034331;28;46718;-74
2021/11/10 14:07:05;;;;;;;;;25.75;23.50;;;;;;;;5052910;28;45376;-73
2021/11/10 14:09:32;;;;;;;;;24.25;22.25;;;;;;;;5052739;28;45459;-73
2021/11/10 14:12:16;;;;;;;;;33.00;32.25;;;;;;;;5052636;28;45589;-73
2021/11/10 14:14:41;;;;;;;;;29.50;24.75;;;;;;;;5038001;28;46324;-73
2021/11/10 14:17:07;;;;;;;;;29.00;27.00;;;;;;;;5051620;28;45570;-74